sensor_id;sensor_type;location;lat;lon;timestamp;P1;P2;P0
60816;PMS5003;51921;51.518;-3.188;2022-10-16T00:00:08;1;1;
60816;PMS5003;51921;51.518;-3.188;2022-10-16T00:02:32;1;1;
60816;PMS5003;51921;51.518;-3.188;2022-10-16T00:04:58;0;0;
60816;PMS5003;51921;51.518;-3.188;2022-10-16T00:07:23;0;0;
60816;PMS5003;51921;51.518;-3.188;2022-10-16T00:09:49;0;0;
60816;PMS5003;51921;51.518;-3.188;2022-10-16T00:12:14;1;1;
60816;PMS5003;51921;51.518;-3.188;2022-10-16T00:14:40;0;0;
60816;PMS5003;51921;51.518;-3.188;2022-10-16T00:17:05;1;1;
60816;PMS5003;51921;51.518;-3.188;2022-10-16T00:19:31;1;1;
60816;PMS5003;51921;51.518;-3.188;2022-10-16T00:21:56;2;1;
60816;PMS5003;51921;51.518;-3.188;2022-10-16T00:24:22;0;0;
60816;PMS5003;51921;51.518;-3.188;2022-10-16T00:26:49;0;0;
60816;PMS5003;51921;51.518;-3.188;2022-10-16T00:29:13;2;2;
60816;PMS5003;51921;51.518;-3.188;2022-10-16T00:31:38;3;3;
60816;PMS5003;51921;51.518;-3.188;2022-10-16T00:34:04;1;1;
60816;PMS5003;51921;51.518;-3.188;2022-10-16T00:36:29;0;0;
60816;PMS5003;51921;51.518;-3.188;2022-10-16T00:38:56;3;3;
60816;PMS5003;51921;51.518;-3.188;2022-10-16T00:41:22;1;1;
60816;PMS5003;51921;51.518;-3.188;2022-10-16T00:43:47;3;2;
60816;PMS5003;51921;51.518;-3.188;2022-10-16T00:46:15;2;1;
60816;PMS5003;51921;51.518;-3.188;2022-10-16T00:48:37;2;2;
60816;PMS5003;51921;51.518;-3.188;2022-10-16T00:51:02;2;2;
60816;PMS5003;51921;51.518;-3.188;2022-10-16T00:53:28;3;1;
60816;PMS5003;51921;51.518;-3.188;2022-10-16T00:55:53;1;0;
60816;PMS5003;51921;51.518;-3.188;2022-10-16T00:58:19;3;1;
60816;PMS5003;51921;51.518;-3.188;2022-10-16T01:00:44;3;2;
60816;PMS5003;51921;51.518;-3.188;2022-10-16T01:05:37;3;3;
60816;PMS5003;51921;51.518;-3.188;2022-10-16T01:08:03;6;5;
60816;PMS5003;51921;51.518;-3.188;2022-10-16T01:10:27;3;2;
60816;PMS5003;51921;51.518;-3.188;2022-10-16T01:12:52;4;2;
60816;PMS5003;51921;51.518;-3.188;2022-10-16T01:15:18;3;2;
60816;PMS5003;51921;51.518;-3.188;2022-10-16T01:17:44;3;3;
60816;PMS5003;51921;51.518;-3.188;2022-10-16T01:20:10;4;3;
60816;PMS5003;51921;51.518;-3.188;2022-10-16T01:22:37;2;2;
60816;PMS5003;51921;51.518;-3.188;2022-10-16T01:24:59;8;5;
60816;PMS5003;51921;51.518;-3.188;2022-10-16T01:27:24;2;1;
60816;PMS5003;51921;51.518;-3.188;2022-10-16T01:29:51;1;0;
60816;PMS5003;51921;51.518;-3.188;2022-10-16T01:32:17;3;2;
60816;PMS5003;51921;51.518;-3.188;2022-10-16T01:34:42;4;3;
60816;PMS5003;51921;51.518;-3.188;2022-10-16T01:37:07;3;1;
60816;PMS5003;51921;51.518;-3.188;2022-10-16T01:39:32;2;2;
60816;PMS5003;51921;51.518;-3.188;2022-10-16T01:41:59;3;3;
60816;PMS5003;51921;51.518;-3.188;2022-10-16T01:44:23;3;2;
60816;PMS5003;51921;51.518;-3.188;2022-10-16T01:46:48;4;2;
60816;PMS5003;51921;51.518;-3.188;2022-10-16T01:49:13;2;2;
60816;PMS5003;51921;51.518;-3.188;2022-10-16T01:51:39;4;2;
60816;PMS5003;51921;51.518;-3.188;2022-10-16T01:54:04;4;2;
60816;PMS5003;51921;51.518;-3.188;2022-10-16T01:56:30;7;5;
60816;PMS5003;51921;51.518;-3.188;2022-10-16T01:58:56;3;3;
60816;PMS5003;51921;51.518;-3.188;2022-10-16T02:01:21;5;3;
60816;PMS5003;51921;51.518;-3.188;2022-10-16T02:03:46;4;3;
60816;PMS5003;51921;51.518;-3.188;2022-10-16T02:06:12;3;2;
60816;PMS5003;51921;51.518;-3.188;2022-10-16T02:08:37;4;4;
60816;PMS5003;51921;51.518;-3.188;2022-10-16T02:11:02;3;2;
60816;PMS5003;51921;51.518;-3.188;2022-10-16T02:13:29;3;2;
60816;PMS5003;51921;51.518;-3.188;2022-10-16T02:15:53;2;1;
60816;PMS5003;51921;51.518;-3.188;2022-10-16T02:18:18;3;2;
60816;PMS5003;51921;51.518;-3.188;2022-10-16T02:20:46;2;2;
60816;PMS5003;51921;51.518;-3.188;2022-10-16T02:23:11;4;3;
60816;PMS5003;51921;51.518;-3.188;2022-10-16T02:25:35;4;3;
60816;PMS5003;51921;51.518;-3.188;2022-10-16T02:28:01;2;2;
60816;PMS5003;51921;51.518;-3.188;2022-10-16T02:30:27;2;1;
60816;PMS5003;51921;51.518;-3.188;2022-10-16T02:32:51;4;3;
60816;PMS5003;51921;51.518;-3.188;2022-10-16T02:35:17;3;1;
60816;PMS5003;51921;51.518;-3.188;2022-10-16T02:37:42;2;1;
60816;PMS5003;51921;51.518;-3.188;2022-10-16T02:40:08;4;2;
60816;PMS5003;51921;51.518;-3.188;2022-10-16T02:42:33;3;1;
60816;PMS5003;51921;51.518;-3.188;2022-10-16T02:44:58;2;1;
60816;PMS5003;51921;51.518;-3.188;2022-10-16T02:47:24;3;3;
60816;PMS5003;51921;51.518;-3.188;2022-10-16T02:49:49;3;2;
60816;PMS5003;51921;51.518;-3.188;2022-10-16T02:52:15;2;2;
60816;PMS5003;51921;51.518;-3.188;2022-10-16T02:54:40;2;1;
60816;PMS5003;51921;51.518;-3.188;2022-10-16T02:57:05;2;1;
60816;PMS5003;51921;51.518;-3.188;2022-10-16T02:59:30;8;5;
60816;PMS5003;51921;51.518;-3.188;2022-10-16T03:01:56;4;4;
60816;PMS5003;51921;51.518;-3.188;2022-10-16T03:04:21;2;1;
60816;PMS5003;51921;51.518;-3.188;2022-10-16T03:06:47;1;1;
60816;PMS5003;51921;51.518;-3.188;2022-10-16T03:09:12;2;1;
60816;PMS5003;51921;51.518;-3.188;2022-10-16T03:11:38;3;1;
60816;PMS5003;51921;51.518;-3.188;2022-10-16T03:14:03;0;0;
60816;PMS5003;51921;51.518;-3.188;2022-10-16T03:16:29;1;1;
60816;PMS5003;51921;51.518;-3.188;2022-10-16T03:18:54;3;1;
60816;PMS5003;51921;51.518;-3.188;2022-10-16T03:21:20;1;0;
60816;PMS5003;51921;51.518;-3.188;2022-10-16T03:23:45;1;1;
60816;PMS5003;51921;51.518;-3.188;2022-10-16T03:26:11;2;1;
60816;PMS5003;51921;51.518;-3.188;2022-10-16T03:28:36;2;2;
60816;PMS5003;51921;51.518;-3.188;2022-10-16T03:31:02;2;1;
60816;PMS5003;51921;51.518;-3.188;2022-10-16T03:33:27;1;1;
60816;PMS5003;51921;51.518;-3.188;2022-10-16T03:35:53;2;2;
60816;PMS5003;51921;51.518;-3.188;2022-10-16T03:38:18;2;2;
60816;PMS5003;51921;51.518;-3.188;2022-10-16T03:40:43;1;1;
60816;PMS5003;51921;51.518;-3.188;2022-10-16T03:43:09;2;2;
60816;PMS5003;51921;51.518;-3.188;2022-10-16T03:45:34;4;1;
60816;PMS5003;51921;51.518;-3.188;2022-10-16T03:48:00;5;4;
60816;PMS5003;51921;51.518;-3.188;2022-10-16T03:50:25;2;1;
60816;PMS5003;51921;51.518;-3.188;2022-10-16T03:52:50;3;2;
60816;PMS5003;51921;51.518;-3.188;2022-10-16T03:55:16;0;0;
60816;PMS5003;51921;51.518;-3.188;2022-10-16T03:57:41;1;0;
60816;PMS5003;51921;51.518;-3.188;2022-10-16T04:00:07;3;1;
60816;PMS5003;51921;51.518;-3.188;2022-10-16T04:02:32;2;1;
60816;PMS5003;51921;51.518;-3.188;2022-10-16T04:04:58;2;1;
60816;PMS5003;51921;51.518;-3.188;2022-10-16T04:07:23;1;1;
60816;PMS5003;51921;51.518;-3.188;2022-10-16T04:09:49;1;0;
60816;PMS5003;51921;51.518;-3.188;2022-10-16T04:12:14;2;1;
60816;PMS5003;51921;51.518;-3.188;2022-10-16T04:14:40;1;0;
60816;PMS5003;51921;51.518;-3.188;2022-10-16T04:17:05;1;1;
60816;PMS5003;51921;51.518;-3.188;2022-10-16T04:19:31;2;1;
60816;PMS5003;51921;51.518;-3.188;2022-10-16T04:21:56;4;1;
60816;PMS5003;51921;51.518;-3.188;2022-10-16T04:24:21;2;1;
60816;PMS5003;51921;51.518;-3.188;2022-10-16T04:26:47;1;1;
60816;PMS5003;51921;51.518;-3.188;2022-10-16T04:29:12;1;1;
60816;PMS5003;51921;51.518;-3.188;2022-10-16T04:31:38;1;1;
60816;PMS5003;51921;51.518;-3.188;2022-10-16T04:34:03;2;1;
60816;PMS5003;51921;51.518;-3.188;2022-10-16T04:36:29;0;0;
60816;PMS5003;51921;51.518;-3.188;2022-10-16T04:38:54;1;0;
60816;PMS5003;51921;51.518;-3.188;2022-10-16T04:41:20;0;0;
60816;PMS5003;51921;51.518;-3.188;2022-10-16T04:43:45;0;0;
60816;PMS5003;51921;51.518;-3.188;2022-10-16T04:46:11;1;1;
60816;PMS5003;51921;51.518;-3.188;2022-10-16T04:48:36;0;0;
60816;PMS5003;51921;51.518;-3.188;2022-10-16T04:51:02;1;1;
60816;PMS5003;51921;51.518;-3.188;2022-10-16T04:53:27;0;0;
60816;PMS5003;51921;51.518;-3.188;2022-10-16T04:55:52;3;2;
60816;PMS5003;51921;51.518;-3.188;2022-10-16T04:58:18;2;1;
60816;PMS5003;51921;51.518;-3.188;2022-10-16T05:00:44;2;1;
60816;PMS5003;51921;51.518;-3.188;2022-10-16T05:03:08;0;0;
60816;PMS5003;51921;51.518;-3.188;2022-10-16T05:05:34;1;1;
60816;PMS5003;51921;51.518;-3.188;2022-10-16T05:07:59;0;0;
60816;PMS5003;51921;51.518;-3.188;2022-10-16T05:10:25;0;0;
60816;PMS5003;51921;51.518;-3.188;2022-10-16T05:12:50;1;1;
60816;PMS5003;51921;51.518;-3.188;2022-10-16T05:15:16;1;1;
60816;PMS5003;51921;51.518;-3.188;2022-10-16T05:17:41;1;1;
60816;PMS5003;51921;51.518;-3.188;2022-10-16T05:20:07;1;1;
60816;PMS5003;51921;51.518;-3.188;2022-10-16T05:22:32;1;1;
60816;PMS5003;51921;51.518;-3.188;2022-10-16T05:24:58;1;1;
60816;PMS5003;51921;51.518;-3.188;2022-10-16T05:27:23;1;1;
60816;PMS5003;51921;51.518;-3.188;2022-10-16T05:29:49;2;1;
60816;PMS5003;51921;51.518;-3.188;2022-10-16T05:32:15;3;3;
60816;PMS5003;51921;51.518;-3.188;2022-10-16T05:34:40;1;1;
60816;PMS5003;51921;51.518;-3.188;2022-10-16T05:37:05;2;2;
60816;PMS5003;51921;51.518;-3.188;2022-10-16T05:39:31;4;3;
60816;PMS5003;51921;51.518;-3.188;2022-10-16T05:41:56;2;1;
60816;PMS5003;51921;51.518;-3.188;2022-10-16T05:44:22;1;1;
60816;PMS5003;51921;51.518;-3.188;2022-10-16T05:46:47;3;3;
60816;PMS5003;51921;51.518;-3.188;2022-10-16T05:49:13;3;3;
60816;PMS5003;51921;51.518;-3.188;2022-10-16T05:51:38;2;2;
60816;PMS5003;51921;51.518;-3.188;2022-10-16T05:54:04;2;2;
60816;PMS5003;51921;51.518;-3.188;2022-10-16T05:56:29;1;1;
60816;PMS5003;51921;51.518;-3.188;2022-10-16T05:58:54;3;2;
60816;PMS5003;51921;51.518;-3.188;2022-10-16T06:01:20;2;2;
60816;PMS5003;51921;51.518;-3.188;2022-10-16T06:03:46;2;1;
60816;PMS5003;51921;51.518;-3.188;2022-10-16T06:06:11;2;2;
60816;PMS5003;51921;51.518;-3.188;2022-10-16T06:08:37;1;1;
60816;PMS5003;51921;51.518;-3.188;2022-10-16T06:11:02;1;1;
60816;PMS5003;51921;51.518;-3.188;2022-10-16T06:13:28;2;2;
60816;PMS5003;51921;51.518;-3.188;2022-10-16T06:15:56;4;4;
60816;PMS5003;51921;51.518;-3.188;2022-10-16T06:18:19;0;0;
60816;PMS5003;51921;51.518;-3.188;2022-10-16T06:20:44;1;1;
60816;PMS5003;51921;51.518;-3.188;2022-10-16T06:23:10;1;1;
60816;PMS5003;51921;51.518;-3.188;2022-10-16T06:25:35;4;3;
60816;PMS5003;51921;51.518;-3.188;2022-10-16T06:28:01;4;3;
60816;PMS5003;51921;51.518;-3.188;2022-10-16T06:30:26;2;2;
60816;PMS5003;51921;51.518;-3.188;2022-10-16T06:32:52;3;3;
60816;PMS5003;51921;51.518;-3.188;2022-10-16T06:35:17;4;3;
60816;PMS5003;51921;51.518;-3.188;2022-10-16T06:37:43;3;3;
60816;PMS5003;51921;51.518;-3.188;2022-10-16T06:40:09;3;3;
60816;PMS5003;51921;51.518;-3.188;2022-10-16T06:42:34;2;2;
60816;PMS5003;51921;51.518;-3.188;2022-10-16T06:44:59;3;3;
60816;PMS5003;51921;51.518;-3.188;2022-10-16T06:47:25;2;1;
60816;PMS5003;51921;51.518;-3.188;2022-10-16T06:49:50;4;4;
60816;PMS5003;51921;51.518;-3.188;2022-10-16T06:52:16;3;3;
60816;PMS5003;51921;51.518;-3.188;2022-10-16T06:54:42;3;3;
60816;PMS5003;51921;51.518;-3.188;2022-10-16T06:57:07;1;1;
60816;PMS5003;51921;51.518;-3.188;2022-10-16T06:59:33;3;2;
60816;PMS5003;51921;51.518;-3.188;2022-10-16T07:01:58;1;1;
60816;PMS5003;51921;51.518;-3.188;2022-10-16T07:04:24;4;4;
60816;PMS5003;51921;51.518;-3.188;2022-10-16T07:06:49;3;3;
60816;PMS5003;51921;51.518;-3.188;2022-10-16T07:09:15;3;3;
60816;PMS5003;51921;51.518;-3.188;2022-10-16T07:11:40;3;3;
60816;PMS5003;51921;51.518;-3.188;2022-10-16T07:14:09;3;3;
60816;PMS5003;51921;51.518;-3.188;2022-10-16T07:16:32;2;2;
60816;PMS5003;51921;51.518;-3.188;2022-10-16T07:18:57;3;2;
60816;PMS5003;51921;51.518;-3.188;2022-10-16T07:21:22;5;4;
60816;PMS5003;51921;51.518;-3.188;2022-10-16T07:23:50;3;3;
60816;PMS5003;51921;51.518;-3.188;2022-10-16T07:26:13;2;2;
60816;PMS5003;51921;51.518;-3.188;2022-10-16T07:28:39;3;3;
60816;PMS5003;51921;51.518;-3.188;2022-10-16T07:31:05;2;2;
60816;PMS5003;51921;51.518;-3.188;2022-10-16T07:33:30;1;1;
60816;PMS5003;51921;51.518;-3.188;2022-10-16T07:35:56;2;2;
60816;PMS5003;51921;51.518;-3.188;2022-10-16T07:38:21;2;2;
60816;PMS5003;51921;51.518;-3.188;2022-10-16T07:40:47;5;4;
60816;PMS5003;51921;51.518;-3.188;2022-10-16T07:43:12;3;2;
60816;PMS5003;51921;51.518;-3.188;2022-10-16T07:45:45;2;2;
60816;PMS5003;51921;51.518;-3.188;2022-10-16T07:48:03;1;1;
60816;PMS5003;51921;51.518;-3.188;2022-10-16T07:50:29;4;2;
60816;PMS5003;51921;51.518;-3.188;2022-10-16T07:52:54;3;3;
60816;PMS5003;51921;51.518;-3.188;2022-10-16T07:55:19;7;6;
60816;PMS5003;51921;51.518;-3.188;2022-10-16T07:57:45;4;3;
60816;PMS5003;51921;51.518;-3.188;2022-10-16T08:00:11;3;3;
60816;PMS5003;51921;51.518;-3.188;2022-10-16T08:02:36;3;3;
60816;PMS5003;51921;51.518;-3.188;2022-10-16T08:05:02;3;3;
60816;PMS5003;51921;51.518;-3.188;2022-10-16T08:07:27;5;3;
60816;PMS5003;51921;51.518;-3.188;2022-10-16T08:09:52;4;4;
60816;PMS5003;51921;51.518;-3.188;2022-10-16T08:12:18;4;3;
60816;PMS5003;51921;51.518;-3.188;2022-10-16T08:14:43;3;3;
60816;PMS5003;51921;51.518;-3.188;2022-10-16T08:17:09;7;6;
60816;PMS5003;51921;51.518;-3.188;2022-10-16T08:19:34;8;7;
60816;PMS5003;51921;51.518;-3.188;2022-10-16T08:22:00;7;7;
60816;PMS5003;51921;51.518;-3.188;2022-10-16T08:24:25;18;16;
60816;PMS5003;51921;51.518;-3.188;2022-10-16T08:26:50;17;15;
60816;PMS5003;51921;51.518;-3.188;2022-10-16T08:29:16;14;14;
60816;PMS5003;51921;51.518;-3.188;2022-10-16T08:31:41;6;6;
60816;PMS5003;51921;51.518;-3.188;2022-10-16T08:34:07;6;4;
60816;PMS5003;51921;51.518;-3.188;2022-10-16T08:36:32;5;5;
60816;PMS5003;51921;51.518;-3.188;2022-10-16T08:38:57;5;4;
60816;PMS5003;51921;51.518;-3.188;2022-10-16T08:41:27;4;3;
60816;PMS5003;51921;51.518;-3.188;2022-10-16T08:46:16;2;2;
60816;PMS5003;51921;51.518;-3.188;2022-10-16T08:48:42;3;2;
60816;PMS5003;51921;51.518;-3.188;2022-10-16T08:51:06;3;3;
60816;PMS5003;51921;51.518;-3.188;2022-10-16T08:53:31;3;3;
60816;PMS5003;51921;51.518;-3.188;2022-10-16T08:55:55;3;3;
60816;PMS5003;51921;51.518;-3.188;2022-10-16T08:58:22;1;1;
60816;PMS5003;51921;51.518;-3.188;2022-10-16T09:00:47;4;4;
60816;PMS5003;51921;51.518;-3.188;2022-10-16T09:03:14;1;1;
60816;PMS5003;51921;51.518;-3.188;2022-10-16T09:08:05;2;2;
60816;PMS5003;51921;51.518;-3.188;2022-10-16T09:10:31;5;3;
60816;PMS5003;51921;51.518;-3.188;2022-10-16T09:12:55;4;3;
60816;PMS5003;51921;51.518;-3.188;2022-10-16T09:15:22;3;3;
60816;PMS5003;51921;51.518;-3.188;2022-10-16T09:17:48;3;3;
60816;PMS5003;51921;51.518;-3.188;2022-10-16T09:20:13;2;2;
60816;PMS5003;51921;51.518;-3.188;2022-10-16T09:22:35;4;3;
60816;PMS5003;51921;51.518;-3.188;2022-10-16T09:25:01;6;5;
60816;PMS5003;51921;51.518;-3.188;2022-10-16T09:27:26;3;3;
60816;PMS5003;51921;51.518;-3.188;2022-10-16T09:29:51;5;4;
60816;PMS5003;51921;51.518;-3.188;2022-10-16T09:32:18;4;4;
60816;PMS5003;51921;51.518;-3.188;2022-10-16T09:34:43;4;3;
60816;PMS5003;51921;51.518;-3.188;2022-10-16T09:37:09;3;3;
60816;PMS5003;51921;51.518;-3.188;2022-10-16T09:41:59;5;5;
60816;PMS5003;51921;51.518;-3.188;2022-10-16T09:44:25;4;4;
60816;PMS5003;51921;51.518;-3.188;2022-10-16T09:47:00;6;4;
60816;PMS5003;51921;51.518;-3.188;2022-10-16T09:49:20;4;3;
60816;PMS5003;51921;51.518;-3.188;2022-10-16T09:51:40;6;5;
60816;PMS5003;51921;51.518;-3.188;2022-10-16T09:56:32;6;4;
60816;PMS5003;51921;51.518;-3.188;2022-10-16T09:58:57;6;4;
60816;PMS5003;51921;51.518;-3.188;2022-10-16T10:01:23;6;6;
60816;PMS5003;51921;51.518;-3.188;2022-10-16T10:03:48;5;5;
60816;PMS5003;51921;51.518;-3.188;2022-10-16T10:06:16;3;3;
60816;PMS5003;51921;51.518;-3.188;2022-10-16T10:08:38;4;4;
60816;PMS5003;51921;51.518;-3.188;2022-10-16T10:11:04;3;3;
60816;PMS5003;51921;51.518;-3.188;2022-10-16T10:13:29;4;3;
60816;PMS5003;51921;51.518;-3.188;2022-10-16T10:15:55;3;3;
60816;PMS5003;51921;51.518;-3.188;2022-10-16T10:18:21;6;4;
60816;PMS5003;51921;51.518;-3.188;2022-10-16T10:20:46;6;5;
60816;PMS5003;51921;51.518;-3.188;2022-10-16T10:23:20;7;5;
60816;PMS5003;51921;51.518;-3.188;2022-10-16T10:25:39;6;5;
60816;PMS5003;51921;51.518;-3.188;2022-10-16T10:28:07;4;4;
60816;PMS5003;51921;51.518;-3.188;2022-10-16T10:30:29;4;3;
60816;PMS5003;51921;51.518;-3.188;2022-10-16T10:33:08;6;5;
60816;PMS5003;51921;51.518;-3.188;2022-10-16T10:35:20;3;3;
60816;PMS5003;51921;51.518;-3.188;2022-10-16T10:37:49;2;1;
60816;PMS5003;51921;51.518;-3.188;2022-10-16T10:40:13;4;3;
60816;PMS5003;51921;51.518;-3.188;2022-10-16T10:42:35;4;3;
60816;PMS5003;51921;51.518;-3.188;2022-10-16T10:45:04;2;1;
60816;PMS5003;51921;51.518;-3.188;2022-10-16T10:47:28;5;2;
60816;PMS5003;51921;51.518;-3.188;2022-10-16T10:49:54;2;1;
60816;PMS5003;51921;51.518;-3.188;2022-10-16T10:52:24;1;1;
60816;PMS5003;51921;51.518;-3.188;2022-10-16T10:54:45;3;2;
60816;PMS5003;51921;51.518;-3.188;2022-10-16T10:57:09;2;2;
60816;PMS5003;51921;51.518;-3.188;2022-10-16T10:59:45;2;1;
60816;PMS5003;51921;51.518;-3.188;2022-10-16T11:01:59;1;1;
60816;PMS5003;51921;51.518;-3.188;2022-10-16T11:04:29;1;1;
60816;PMS5003;51921;51.518;-3.188;2022-10-16T11:06:50;2;2;
60816;PMS5003;51921;51.518;-3.188;2022-10-16T11:09:15;2;2;
60816;PMS5003;51921;51.518;-3.188;2022-10-16T11:11:40;5;2;
60816;PMS5003;51921;51.518;-3.188;2022-10-16T11:14:06;4;3;
60816;PMS5003;51921;51.518;-3.188;2022-10-16T11:16:33;4;3;
60816;PMS5003;51921;51.518;-3.188;2022-10-16T11:18:58;2;0;
60816;PMS5003;51921;51.518;-3.188;2022-10-16T11:21:22;2;2;
60816;PMS5003;51921;51.518;-3.188;2022-10-16T11:23:49;3;2;
60816;PMS5003;51921;51.518;-3.188;2022-10-16T11:26:14;1;0;
60816;PMS5003;51921;51.518;-3.188;2022-10-16T11:28:39;2;1;
60816;PMS5003;51921;51.518;-3.188;2022-10-16T11:31:05;1;1;
60816;PMS5003;51921;51.518;-3.188;2022-10-16T11:33:30;1;0;
60816;PMS5003;51921;51.518;-3.188;2022-10-16T11:35:55;2;1;
60816;PMS5003;51921;51.518;-3.188;2022-10-16T11:38:21;0;0;
60816;PMS5003;51921;51.518;-3.188;2022-10-16T11:40:45;3;2;
60816;PMS5003;51921;51.518;-3.188;2022-10-16T11:43:12;2;2;
60816;PMS5003;51921;51.518;-3.188;2022-10-16T11:45:36;2;2;
60816;PMS5003;51921;51.518;-3.188;2022-10-16T11:48:02;1;1;
60816;PMS5003;51921;51.518;-3.188;2022-10-16T11:50:28;3;3;
60816;PMS5003;51921;51.518;-3.188;2022-10-16T11:52:53;3;2;
60816;PMS5003;51921;51.518;-3.188;2022-10-16T11:55:18;4;3;
60816;PMS5003;51921;51.518;-3.188;2022-10-16T11:57:44;3;1;
60816;PMS5003;51921;51.518;-3.188;2022-10-16T12:00:09;3;2;
60816;PMS5003;51921;51.518;-3.188;2022-10-16T12:02:37;2;1;
60816;PMS5003;51921;51.518;-3.188;2022-10-16T12:05:02;1;1;
60816;PMS5003;51921;51.518;-3.188;2022-10-16T12:07:26;3;2;
60816;PMS5003;51921;51.518;-3.188;2022-10-16T12:09:50;5;4;
60816;PMS5003;51921;51.518;-3.188;2022-10-16T12:12:24;4;4;
60816;PMS5003;51921;51.518;-3.188;2022-10-16T12:14:40;2;2;
60816;PMS5003;51921;51.518;-3.188;2022-10-16T12:19:31;5;3;
60816;PMS5003;51921;51.518;-3.188;2022-10-16T12:21:58;3;2;
60816;PMS5003;51921;51.518;-3.188;2022-10-16T12:24:27;4;3;
60816;PMS5003;51921;51.518;-3.188;2022-10-16T12:26:47;5;4;
60816;PMS5003;51921;51.518;-3.188;2022-10-16T12:29:14;7;5;
60816;PMS5003;51921;51.518;-3.188;2022-10-16T12:31:39;3;3;
60816;PMS5003;51921;51.518;-3.188;2022-10-16T12:34:03;5;4;
60816;PMS5003;51921;51.518;-3.188;2022-10-16T12:36:29;2;2;
60816;PMS5003;51921;51.518;-3.188;2022-10-16T12:38:54;2;2;
60816;PMS5003;51921;51.518;-3.188;2022-10-16T12:41:24;1;1;
60816;PMS5003;51921;51.518;-3.188;2022-10-16T12:43:45;4;4;
60816;PMS5003;51921;51.518;-3.188;2022-10-16T13:42:02;2;2;
60816;PMS5003;51921;51.518;-3.188;2022-10-16T13:44:20;2;1;
60816;PMS5003;51921;51.518;-3.188;2022-10-16T13:46:46;4;3;
60816;PMS5003;51921;51.518;-3.188;2022-10-16T13:49:13;2;1;
60816;PMS5003;51921;51.518;-3.188;2022-10-16T13:51:36;4;3;
60816;PMS5003;51921;51.518;-3.188;2022-10-16T13:54:01;2;2;
60816;PMS5003;51921;51.518;-3.188;2022-10-16T13:56:28;9;9;
60816;PMS5003;51921;51.518;-3.188;2022-10-16T13:58:58;3;2;
60816;PMS5003;51921;51.518;-3.188;2022-10-16T14:01:18;3;3;
60816;PMS5003;51921;51.518;-3.188;2022-10-16T14:03:43;3;3;
60816;PMS5003;51921;51.518;-3.188;2022-10-16T14:06:11;4;3;
60816;PMS5003;51921;51.518;-3.188;2022-10-16T14:08:33;4;3;
60816;PMS5003;51921;51.518;-3.188;2022-10-16T14:10:59;2;1;
60816;PMS5003;51921;51.518;-3.188;2022-10-16T14:13:27;2;2;
60816;PMS5003;51921;51.518;-3.188;2022-10-16T14:15:50;1;1;
60816;PMS5003;51921;51.518;-3.188;2022-10-16T14:18:17;2;2;
60816;PMS5003;51921;51.518;-3.188;2022-10-16T14:20:40;1;1;
60816;PMS5003;51921;51.518;-3.188;2022-10-16T14:25:32;2;1;
60816;PMS5003;51921;51.518;-3.188;2022-10-16T14:27:58;2;2;
60816;PMS5003;51921;51.518;-3.188;2022-10-16T14:30:22;1;0;
60816;PMS5003;51921;51.518;-3.188;2022-10-16T14:37:38;1;1;
60816;PMS5003;51921;51.518;-3.188;2022-10-16T14:40:04;1;1;
60816;PMS5003;51921;51.518;-3.188;2022-10-16T14:42:29;2;1;
60816;PMS5003;51921;51.518;-3.188;2022-10-16T14:44:54;2;1;
60816;PMS5003;51921;51.518;-3.188;2022-10-16T14:47:20;0;0;
60816;PMS5003;51921;51.518;-3.188;2022-10-16T14:49:45;3;1;
60816;PMS5003;51921;51.518;-3.188;2022-10-16T14:52:10;2;2;
60816;PMS5003;51921;51.518;-3.188;2022-10-16T14:54:35;2;2;
60816;PMS5003;51921;51.518;-3.188;2022-10-16T14:57:01;4;2;
60816;PMS5003;51921;51.518;-3.188;2022-10-16T14:59:27;3;1;
60816;PMS5003;51921;51.518;-3.188;2022-10-16T15:01:52;0;0;
60816;PMS5003;51921;51.518;-3.188;2022-10-16T15:04:17;1;1;
60816;PMS5003;51921;51.518;-3.188;2022-10-16T15:06:42;1;1;
60816;PMS5003;51921;51.518;-3.188;2022-10-16T15:09:08;2;1;
60816;PMS5003;51921;51.518;-3.188;2022-10-16T15:11:33;2;1;
60816;PMS5003;51921;51.518;-3.188;2022-10-16T15:13:59;1;1;
60816;PMS5003;51921;51.518;-3.188;2022-10-16T15:16:24;4;3;
60816;PMS5003;51921;51.518;-3.188;2022-10-16T15:18:49;1;1;
60816;PMS5003;51921;51.518;-3.188;2022-10-16T15:21:17;2;1;
60816;PMS5003;51921;51.518;-3.188;2022-10-16T15:23:40;3;2;
60816;PMS5003;51921;51.518;-3.188;2022-10-16T15:26:07;4;3;
60816;PMS5003;51921;51.518;-3.188;2022-10-16T15:28:30;2;2;
60816;PMS5003;51921;51.518;-3.188;2022-10-16T15:30:56;5;3;
60816;PMS5003;51921;51.518;-3.188;2022-10-16T15:33:22;3;3;
60816;PMS5003;51921;51.518;-3.188;2022-10-16T15:35:47;4;3;
60816;PMS5003;51921;51.518;-3.188;2022-10-16T15:38:12;5;4;
60816;PMS5003;51921;51.518;-3.188;2022-10-16T15:40:37;4;2;
60816;PMS5003;51921;51.518;-3.188;2022-10-16T15:43:02;2;1;
60816;PMS5003;51921;51.518;-3.188;2022-10-16T15:45:28;2;2;
60816;PMS5003;51921;51.518;-3.188;2022-10-16T15:47:53;3;2;
60816;PMS5003;51921;51.518;-3.188;2022-10-16T15:50:19;4;3;
60816;PMS5003;51921;51.518;-3.188;2022-10-16T15:52:44;3;1;
60816;PMS5003;51921;51.518;-3.188;2022-10-16T15:55:10;3;3;
60816;PMS5003;51921;51.518;-3.188;2022-10-16T15:57:35;1;1;
60816;PMS5003;51921;51.518;-3.188;2022-10-16T16:00:00;2;1;
60816;PMS5003;51921;51.518;-3.188;2022-10-16T16:02:26;4;2;
60816;PMS5003;51921;51.518;-3.188;2022-10-16T16:04:51;4;3;
60816;PMS5003;51921;51.518;-3.188;2022-10-16T16:07:17;4;4;
60816;PMS5003;51921;51.518;-3.188;2022-10-16T16:09:42;4;4;
60816;PMS5003;51921;51.518;-3.188;2022-10-16T16:12:07;5;4;
60816;PMS5003;51921;51.518;-3.188;2022-10-16T16:14:33;4;3;
60816;PMS5003;51921;51.518;-3.188;2022-10-16T16:16:58;3;2;
60816;PMS5003;51921;51.518;-3.188;2022-10-16T16:19:24;4;4;
60816;PMS5003;51921;51.518;-3.188;2022-10-16T16:21:49;2;2;
60816;PMS5003;51921;51.518;-3.188;2022-10-16T16:24:14;7;4;
60816;PMS5003;51921;51.518;-3.188;2022-10-16T16:26:40;3;3;
60816;PMS5003;51921;51.518;-3.188;2022-10-16T16:29:05;3;3;
60816;PMS5003;51921;51.518;-3.188;2022-10-16T16:31:31;2;2;
60816;PMS5003;51921;51.518;-3.188;2022-10-16T16:33:56;2;2;
60816;PMS5003;51921;51.518;-3.188;2022-10-16T16:36:22;3;2;
60816;PMS5003;51921;51.518;-3.188;2022-10-16T16:38:47;3;3;
60816;PMS5003;51921;51.518;-3.188;2022-10-16T16:41:13;3;3;
60816;PMS5003;51921;51.518;-3.188;2022-10-16T16:43:38;4;4;
60816;PMS5003;51921;51.518;-3.188;2022-10-16T16:46:03;4;4;
60816;PMS5003;51921;51.518;-3.188;2022-10-16T16:48:28;5;3;
60816;PMS5003;51921;51.518;-3.188;2022-10-16T16:50:54;4;3;
60816;PMS5003;51921;51.518;-3.188;2022-10-16T16:53:19;3;3;
60816;PMS5003;51921;51.518;-3.188;2022-10-16T16:55:45;5;3;
60816;PMS5003;51921;51.518;-3.188;2022-10-16T16:58:10;4;4;
60816;PMS5003;51921;51.518;-3.188;2022-10-16T17:00:36;2;2;
60816;PMS5003;51921;51.518;-3.188;2022-10-16T17:03:01;5;4;
60816;PMS5003;51921;51.518;-3.188;2022-10-16T17:05:26;4;4;
60816;PMS5003;51921;51.518;-3.188;2022-10-16T17:07:52;7;5;
60816;PMS5003;51921;51.518;-3.188;2022-10-16T17:10:17;5;4;
60816;PMS5003;51921;51.518;-3.188;2022-10-16T17:12:43;3;3;
60816;PMS5003;51921;51.518;-3.188;2022-10-16T17:15:08;8;8;
60816;PMS5003;51921;51.518;-3.188;2022-10-16T17:17:34;4;3;
60816;PMS5003;51921;51.518;-3.188;2022-10-16T17:19:59;7;4;
60816;PMS5003;51921;51.518;-3.188;2022-10-16T17:22:24;3;3;
60816;PMS5003;51921;51.518;-3.188;2022-10-16T17:24:50;5;5;
60816;PMS5003;51921;51.518;-3.188;2022-10-16T17:27:15;7;6;
60816;PMS5003;51921;51.518;-3.188;2022-10-16T17:29:40;4;4;
60816;PMS5003;51921;51.518;-3.188;2022-10-16T17:32:06;4;3;
60816;PMS5003;51921;51.518;-3.188;2022-10-16T17:34:31;12;11;
60816;PMS5003;51921;51.518;-3.188;2022-10-16T17:36:57;8;7;